createdAt,value
2023-11-08T03:35:19.565Z,4.88
2023-11-08T03:37:49.276Z,3.28
2023-11-08T03:40:18.645Z,3.15
2023-11-08T03:42:47.355Z,2.80
2023-11-08T03:45:15.735Z,2.55
2023-11-08T03:47:44.108Z,2.55
2023-11-08T03:50:13.147Z,3.90
2023-11-08T03:52:42.090Z,3.30
2023-11-08T03:55:12.101Z,1.75
2023-11-08T03:57:42.167Z,2.83
2023-11-08T04:00:11.378Z,4.20
2023-11-08T04:02:39.530Z,4.07
2023-11-08T04:05:08.584Z,3.25
2023-11-08T04:07:36.719Z,1.73
2023-11-08T04:10:05.157Z,2.20
2023-11-08T04:12:34.828Z,2.85
2023-11-08T04:15:03.053Z,3.33
2023-11-08T04:17:31.217Z,3.20
2023-11-08T04:19:59.474Z,4.97
2023-11-08T04:22:27.676Z,4.28
2023-11-08T04:24:55.830Z,2.85
2023-11-08T04:27:24.065Z,2.88
2023-11-08T04:29:53.487Z,4.03
2023-11-08T04:32:21.657Z,2.42
2023-11-08T04:34:52.220Z,2.95
2023-11-08T04:37:20.481Z,3.10
2023-11-08T04:39:50.463Z,2.28
2023-11-08T04:42:19.057Z,2.80
2023-11-08T04:44:48.132Z,3.85
2023-11-08T04:47:19.514Z,2.08
2023-11-08T04:49:48.717Z,4.35
2023-11-08T04:52:17.337Z,4.57
2023-11-08T04:54:53.988Z,1.52
2023-11-08T04:57:24.510Z,1.95
2023-11-08T04:59:52.895Z,2.88
2023-11-08T05:02:22.662Z,2.90
2023-11-08T05:04:51.459Z,3.17
2023-11-08T05:07:20.473Z,3.30
2023-11-08T05:09:47.980Z,2.63
2023-11-08T05:12:16.974Z,2.58
2023-11-08T05:14:45.195Z,3.28
2023-11-08T05:17:15.420Z,1.92
2023-11-08T05:19:45.583Z,3.05
2023-11-08T05:22:14.159Z,2.92
2023-11-08T05:24:42.662Z,3.13
2023-11-08T05:27:12.826Z,2.40
2023-11-08T05:29:41.115Z,4.38
2023-11-08T05:32:10.675Z,1.40
2023-11-08T05:34:39.398Z,3.35
2023-11-08T05:37:08.919Z,4.38
2023-11-08T05:39:37.595Z,3.70
2023-11-08T05:42:06.422Z,2.38
2023-11-08T05:44:34.590Z,2.55
2023-11-08T05:47:02.601Z,3.42
2023-11-08T05:49:31.320Z,2.50
2023-11-08T05:51:59.738Z,3.22
2023-11-08T05:54:29.225Z,5.85
2023-11-08T05:56:57.388Z,3.38
2023-11-08T05:59:26.221Z,2.15
2023-11-08T06:01:54.780Z,3.15
2023-11-08T06:04:22.816Z,3.00
2023-11-08T06:06:51.834Z,3.90
2023-11-08T06:09:20.150Z,1.92
2023-11-08T06:11:51.173Z,4.05
2023-11-08T06:14:19.392Z,1.92
2023-11-08T06:16:48.419Z,2.42
2023-11-08T06:21:48.652Z,2.63
2023-11-08T06:24:16.781Z,4.93
2023-11-08T06:26:44.853Z,37.50
2023-11-08T06:29:14.421Z,14.02
2023-11-08T06:31:42.476Z,31.92
2023-11-08T06:34:10.570Z,18.00
2023-11-08T06:36:38.708Z,83.10
2023-11-08T06:39:06.878Z,37.92
2023-11-08T06:41:34.950Z,111.93
2023-11-08T06:44:03.878Z,58.47
2023-11-08T06:46:33.433Z,4.97
2023-11-08T06:49:01.521Z,2.85
2023-11-08T06:51:29.669Z,4.22
2023-11-08T06:53:58.670Z,4.00
2023-11-08T06:56:26.872Z,2.90
2023-11-08T06:58:57.689Z,2.38
2023-11-08T07:01:27.999Z,2.25
2023-11-08T07:03:57.447Z,2.30
2023-11-08T07:06:25.677Z,4.45
2023-11-08T07:08:53.802Z,2.80
2023-11-08T07:11:22.308Z,4.82
2023-11-08T07:13:50.791Z,3.83
2023-11-08T07:16:19.843Z,3.75
2023-11-08T07:18:48.192Z,5.35
2023-11-08T07:21:21.420Z,4.88
2023-11-08T07:23:49.580Z,4.30
2023-11-08T07:26:18.021Z,3.63
2023-11-08T07:28:47.306Z,5.90
2023-11-08T07:31:15.892Z,4.72
2023-11-08T07:33:45.129Z,3.70
2023-11-08T07:36:14.020Z,3.13
2023-11-08T07:38:43.459Z,4.22
2023-11-08T07:41:11.646Z,3.40
2023-11-08T07:43:39.824Z,2.63
2023-11-08T07:46:09.350Z,5.78
2023-11-08T07:48:37.504Z,3.85
2023-11-08T07:51:09.367Z,6.18
2023-11-08T07:53:37.935Z,9.05
2023-11-08T07:56:09.363Z,4.03
2023-11-08T07:58:37.716Z,5.40
2023-11-08T08:01:07.058Z,1.90
2023-11-08T08:03:36.858Z,2.65
2023-11-08T08:06:05.929Z,4.18
2023-11-08T08:08:34.085Z,4.93
2023-11-08T08:11:02.100Z,2.83
2023-11-08T08:13:33.513Z,3.08
2023-11-08T08:16:01.798Z,4.30
2023-11-08T08:18:30.120Z,4.38
2023-11-08T08:20:58.410Z,4.43
2023-11-08T08:23:26.505Z,5.07
2023-11-08T08:25:55.400Z,6.72
2023-11-08T08:28:23.814Z,7.72
2023-11-08T08:30:54.227Z,6.85
2023-11-08T08:33:23.534Z,6.43
2023-11-08T08:35:51.917Z,5.70
2023-11-08T08:38:20.871Z,4.10
2023-11-08T08:40:50.491Z,3.60
2023-11-08T08:43:19.081Z,3.67
2023-11-08T08:45:47.356Z,3.38
2023-11-08T08:48:17.000Z,4.50
2023-11-08T08:50:45.442Z,2.15
2023-11-08T08:53:13.500Z,3.85
2023-11-08T08:55:43.613Z,2.97
2023-11-08T08:58:12.032Z,3.22
2023-11-08T09:00:40.189Z,3.30
2023-11-08T09:03:08.665Z,2.85
2023-11-08T09:05:38.275Z,2.10
2023-11-08T09:08:06.537Z,1.73
2023-11-08T09:10:34.741Z,1.67
2023-11-08T09:13:02.831Z,2.95
2023-11-08T09:15:32.288Z,1.70
2023-11-08T09:18:00.546Z,1.92
2023-11-08T09:20:28.743Z,2.92
2023-11-08T09:22:58.136Z,2.42
2023-11-08T09:25:26.221Z,1.90
2023-11-08T09:27:54.285Z,3.22
2023-11-08T09:30:22.462Z,2.78
2023-11-08T09:32:52.193Z,1.60
2023-11-08T09:35:22.601Z,2.05
2023-11-08T09:37:50.731Z,1.38
2023-11-08T09:40:20.579Z,2.17
2023-11-08T09:42:49.226Z,3.28
2023-11-08T09:45:18.694Z,5.57
2023-11-08T09:47:49.000Z,2.22
2023-11-08T09:50:17.566Z,2.47
2023-11-08T09:52:45.729Z,3.03
2023-11-08T09:55:15.303Z,2.88
2023-11-08T09:57:46.649Z,3.13
2023-11-08T10:00:16.882Z,2.00
2023-11-08T10:02:44.985Z,2.35
2023-11-08T10:05:13.692Z,2.53
2023-11-08T10:07:42.610Z,3.17
2023-11-08T10:10:11.460Z,4.00
2023-11-08T10:12:40.197Z,3.28
2023-11-08T10:15:12.815Z,4.53
2023-11-08T10:19:30.778Z,2.75
2023-11-08T10:20:35.512Z,1.70
2023-11-08T10:23:04.032Z,4.50
2023-11-08T10:25:32.237Z,4.05
2023-11-08T10:28:05.719Z,2.80
2023-11-08T10:30:40.950Z,2.13
2023-11-08T10:33:10.757Z,1.48
2023-11-08T10:35:40.904Z,2.08
2023-11-08T10:38:11.918Z,2.67
2023-11-08T10:40:41.802Z,1.40
2023-11-08T10:43:10.575Z,2.15
2023-11-08T10:45:40.263Z,4.00
2023-11-08T10:48:10.088Z,2.28
2023-11-08T10:50:39.424Z,3.03
2023-11-08T10:53:07.515Z,1.83
2023-11-08T10:55:35.580Z,1.63
2023-11-08T10:58:07.229Z,2.17
2023-11-08T11:00:37.025Z,1.85
2023-11-08T11:03:11.855Z,1.77
2023-11-08T11:05:46.561Z,3.70
2023-11-08T11:08:20.444Z,2.95
2023-11-08T11:10:49.178Z,1.70
2023-11-08T11:13:26.991Z,2.72
2023-11-08T11:16:06.239Z,3.30
2023-11-08T11:18:43.712Z,3.80
2023-11-08T11:21:22.233Z,4.03
2023-11-08T11:23:50.825Z,2.53
2023-11-08T11:26:44.611Z,2.03
2023-11-08T11:29:18.486Z,2.58
2023-11-08T11:31:46.954Z,2.25
2023-11-08T11:34:45.498Z,1.70
2023-11-08T11:37:17.408Z,3.08
2023-11-08T11:40:05.654Z,1.63
2023-11-08T11:42:33.742Z,0.88
2023-11-08T11:45:02.139Z,1.52
2023-11-08T11:47:31.593Z,1.33
2023-11-08T11:50:04.050Z,2.17
2023-11-08T11:52:34.122Z,2.53
2023-11-08T11:55:05.177Z,0.82
2023-11-08T11:57:34.165Z,2.05
2023-11-08T12:00:04.731Z,1.52
2023-11-08T12:02:35.789Z,3.17
2023-11-08T12:05:06.578Z,2.53
2023-11-08T12:07:38.337Z,2.08
2023-11-08T12:10:12.711Z,1.92
2023-11-08T12:12:45.876Z,2.78
2023-11-08T12:15:15.430Z,3.13
2023-11-08T12:17:48.617Z,1.15
2023-11-08T12:20:22.203Z,1.73
2023-11-08T12:22:50.967Z,0.95
2023-11-08T12:25:20.430Z,4.78
2023-11-08T12:27:51.973Z,1.35
2023-11-08T12:30:22.787Z,1.25
2023-11-08T12:32:50.918Z,1.23
2023-11-08T12:35:20.731Z,1.75
2023-11-08T12:37:48.953Z,1.33
2023-11-08T12:40:21.399Z,2.45
2023-11-08T12:42:49.861Z,1.75
2023-11-08T12:46:33.860Z,3.38
2023-11-08T12:48:19.557Z,1.52
2023-11-08T12:50:52.399Z,1.63
2023-11-08T12:53:20.859Z,1.70
2023-11-08T12:55:49.566Z,1.65
2023-11-08T12:58:25.565Z,2.38
2023-11-08T13:00:53.774Z,0.88
2023-11-08T13:03:22.344Z,1.67
2023-11-08T13:05:52.444Z,1.08
2023-11-08T13:08:20.720Z,3.97
2023-11-08T13:10:48.881Z,3.72
2023-11-08T13:13:17.264Z,1.73
2023-11-08T13:15:45.505Z,0.73
2023-11-08T13:18:13.767Z,1.00
2023-11-08T13:20:42.202Z,1.48
2023-11-08T13:23:19.756Z,2.40
2023-11-08T13:26:00.613Z,1.30
2023-11-08T13:28:28.700Z,2.15
2023-11-08T13:30:56.912Z,2.47
2023-11-08T13:33:26.758Z,1.67
2023-11-08T13:35:54.840Z,2.25
2023-11-08T13:38:24.171Z,1.67
2023-11-08T13:40:52.341Z,1.40
2023-11-08T13:43:20.336Z,0.93
2023-11-08T13:45:48.402Z,1.80
2023-11-08T13:48:17.170Z,0.98
2023-11-08T13:50:45.361Z,1.67
2023-11-08T13:53:14.022Z,1.98
2023-11-08T13:55:43.997Z,1.17
2023-11-08T13:58:19.170Z,1.30
2023-11-08T14:00:57.498Z,1.73
2023-11-08T14:03:25.823Z,1.92
2023-11-08T14:05:53.918Z,2.55
2023-11-08T14:08:22.156Z,2.30
2023-11-08T14:10:51.658Z,1.88
2023-11-08T14:13:20.442Z,2.15
2023-11-08T14:15:48.814Z,1.73
2023-11-08T14:18:17.271Z,1.50
2023-11-08T14:20:45.372Z,2.35
2023-11-08T14:23:13.674Z,2.17
2023-11-08T14:25:43.340Z,3.28
2023-11-08T14:28:14.811Z,2.00
2023-11-08T14:30:42.908Z,8.68
2023-11-08T14:33:11.783Z,1.92
2023-11-08T14:35:39.883Z,1.40
2023-11-08T14:38:07.999Z,2.08
2023-11-08T14:40:36.889Z,2.58
2023-11-08T14:43:05.210Z,3.58
2023-11-08T14:45:34.724Z,3.22
2023-11-08T14:48:03.117Z,3.53
2023-11-08T14:50:31.416Z,2.22
2023-11-08T14:52:59.688Z,3.50
2023-11-08T14:55:27.735Z,1.60
2023-11-08T14:57:55.832Z,0.95
2023-11-08T15:00:25.085Z,1.77
2023-11-08T15:02:56.113Z,0.75
2023-11-08T15:05:24.223Z,1.90
2023-11-08T15:09:47.429Z,2.47
2023-11-08T15:10:41.007Z,2.15
2023-11-08T15:13:09.237Z,2.22
2023-11-08T15:15:39.544Z,1.75
2023-11-08T15:18:09.301Z,1.25
2023-11-08T15:20:37.406Z,8.20
2023-11-08T15:23:06.657Z,2.72
2023-11-08T15:25:35.726Z,4.50
2023-11-08T15:28:03.872Z,3.25
2023-11-08T15:30:32.158Z,2.22
2023-11-08T15:33:01.624Z,7.40
2023-11-08T15:35:32.388Z,1.15
2023-11-08T15:38:00.529Z,2.78
2023-11-08T15:40:28.700Z,1.85
2023-11-08T15:42:56.850Z,14.90
2023-11-08T15:45:25.739Z,14.93
2023-11-08T15:47:54.653Z,17.30
2023-11-08T15:50:22.741Z,10.30
2023-11-08T15:52:52.871Z,11.05
2023-11-08T15:55:23.406Z,7.50
2023-11-08T15:57:51.606Z,6.70
2023-11-08T16:00:20.340Z,7.05
2023-11-08T16:02:48.351Z,7.18
2023-11-08T16:05:16.548Z,4.40
2023-11-08T16:07:44.652Z,3.53
2023-11-08T16:10:14.337Z,4.32
2023-11-08T16:12:42.506Z,4.80
2023-11-08T16:15:11.426Z,5.10
2023-11-08T16:17:39.527Z,9.38
2023-11-08T16:20:09.185Z,30.45
2023-11-08T16:22:37.779Z,16.17
2023-11-08T16:25:07.616Z,15.18
2023-11-08T16:27:37.331Z,27.67
2023-11-08T16:30:06.436Z,26.17
2023-11-08T16:32:42.429Z,13.50
2023-11-08T16:35:13.086Z,5.95
2023-11-08T16:37:42.031Z,6.32
2023-11-08T16:40:13.734Z,7.47
2023-11-08T16:42:43.321Z,11.35
2023-11-08T16:45:12.107Z,9.43
2023-11-08T16:47:40.249Z,7.85
2023-11-08T16:50:08.812Z,10.30
2023-11-08T16:52:36.949Z,6.05
2023-11-08T16:55:07.590Z,7.22
2023-11-08T16:57:37.359Z,6.47
2023-11-08T17:00:08.596Z,5.68
2023-11-08T17:02:37.076Z,9.40
2023-11-08T17:05:06.195Z,7.25
2023-11-08T17:07:34.409Z,11.35
2023-11-08T17:10:03.613Z,18.88
2023-11-08T17:12:31.909Z,6.15
2023-11-08T17:15:00.248Z,3.47
2023-11-08T17:17:30.641Z,3.72
2023-11-08T17:19:58.777Z,3.28
2023-11-08T17:22:26.837Z,3.67
2023-11-08T17:24:55.157Z,3.85
2023-11-08T17:27:23.943Z,3.00
2023-11-08T17:29:52.042Z,6.00
2023-11-08T17:32:20.191Z,3.70
2023-11-08T17:34:49.802Z,3.17
2023-11-08T17:37:17.976Z,2.92
2023-11-08T17:39:46.154Z,3.20
2023-11-08T17:42:18.187Z,3.50
2023-11-08T17:44:46.265Z,4.15
2023-11-08T17:47:14.601Z,4.20
2023-11-08T17:49:42.689Z,4.80
2023-11-08T17:52:12.353Z,4.82
2023-11-08T17:54:40.695Z,6.25
2023-11-08T17:57:08.764Z,4.70
2023-11-08T17:59:37.631Z,4.97
2023-11-08T18:02:05.946Z,4.72
2023-11-08T18:04:34.634Z,4.35
2023-11-08T18:07:03.259Z,4.47
2023-11-08T18:09:32.772Z,4.05
2023-11-08T18:12:00.981Z,2.85
2023-11-08T18:14:29.651Z,5.40
2023-11-08T18:16:58.247Z,3.65
2023-11-08T18:19:26.484Z,4.97
2023-11-08T18:21:54.960Z,3.10
2023-11-08T18:24:24.676Z,3.58
2023-11-08T18:26:54.226Z,5.65
2023-11-08T18:29:23.038Z,5.05
2023-11-08T18:31:51.165Z,4.78
2023-11-08T18:34:19.328Z,5.38
2023-11-08T18:36:47.591Z,6.30
2023-11-08T18:39:16.017Z,6.32
2023-11-08T18:41:44.290Z,6.03
2023-11-08T18:44:13.939Z,6.75
2023-11-08T18:46:42.172Z,8.27
2023-11-08T18:49:22.175Z,7.43
2023-11-08T18:51:50.356Z,7.30
2023-11-08T18:54:18.569Z,7.78
2023-11-08T18:56:46.769Z,8.77
2023-11-08T18:59:16.193Z,6.85
2023-11-08T19:01:44.969Z,7.35
2023-11-08T19:04:13.763Z,7.43
2023-11-08T19:06:43.018Z,8.23
2023-11-08T19:09:11.339Z,8.27
2023-11-08T19:11:40.650Z,7.80
2023-11-08T19:14:08.720Z,7.82
2023-11-08T19:16:40.039Z,8.52
2023-11-08T19:19:08.332Z,9.13
2023-11-08T19:21:36.788Z,8.68
2023-11-08T19:24:05.577Z,7.10
2023-11-08T19:26:33.677Z,9.95
2023-11-08T19:29:02.220Z,7.50
2023-11-08T19:31:30.707Z,7.82
2023-11-08T19:34:00.323Z,9.80
2023-11-08T19:36:29.597Z,7.30
2023-11-08T19:38:58.860Z,8.10
2023-11-08T19:41:26.973Z,7.70
2023-11-08T19:43:55.126Z,9.13
2023-11-08T19:46:23.247Z,7.75
2023-11-08T19:48:52.211Z,8.82
2023-11-08T19:51:21.850Z,7.57
2023-11-08T19:53:49.965Z,7.40
2023-11-08T19:56:18.470Z,7.90
2023-11-08T19:58:46.604Z,9.48
2023-11-08T20:01:15.002Z,7.53
2023-11-08T20:03:44.547Z,8.38
2023-11-08T20:06:12.768Z,7.90
2023-11-08T20:08:42.282Z,8.85
2023-11-08T20:11:10.717Z,6.65
2023-11-08T20:13:38.854Z,8.00
2023-11-08T20:16:07.979Z,6.47
2023-11-08T20:18:36.861Z,6.35
2023-11-08T20:21:05.825Z,9.73
2023-11-08T20:23:33.994Z,7.15
2023-11-08T20:26:03.760Z,6.93
2023-11-08T20:28:32.150Z,6.20
2023-11-08T20:31:03.266Z,7.90
2023-11-08T20:33:31.915Z,6.57
2023-11-08T20:36:00.783Z,6.60
2023-11-08T20:38:29.651Z,7.63
2023-11-08T20:40:58.000Z,5.30
2023-11-08T20:43:29.842Z,6.70
2023-11-08T20:45:59.790Z,5.40
2023-11-08T20:48:28.034Z,7.32
2023-11-08T20:50:56.148Z,5.68
2023-11-08T20:53:25.216Z,7.40
2023-11-08T20:55:54.273Z,6.57
2023-11-08T20:58:22.486Z,5.80
2023-11-08T21:00:52.268Z,5.05
2023-11-08T21:03:22.655Z,6.25
2023-11-08T21:05:50.911Z,6.57
2023-11-08T21:08:19.208Z,5.47
2023-11-08T21:10:47.290Z,6.55
2023-11-08T21:13:15.898Z,5.80
2023-11-08T21:15:45.056Z,7.00
2023-11-08T21:18:19.056Z,7.15
2023-11-08T21:20:49.802Z,6.75
2023-11-08T21:23:17.848Z,7.03
2023-11-08T21:25:46.061Z,7.68
2023-11-08T21:28:14.396Z,7.15
2023-11-08T21:30:42.496Z,7.22
2023-11-08T21:33:10.627Z,8.13
2023-11-08T21:35:40.221Z,7.00
2023-11-08T21:38:09.313Z,8.23
2023-11-08T21:40:37.521Z,7.72
2023-11-08T21:43:05.634Z,8.77
2023-11-08T21:45:33.883Z,6.40
2023-11-08T21:48:02.473Z,7.30
2023-11-08T21:50:30.663Z,6.15
2023-11-08T21:53:00.136Z,6.67
2023-11-08T21:55:28.548Z,6.72
2023-11-08T21:57:56.850Z,6.35
2023-11-08T22:00:25.005Z,7.72
2023-11-08T22:02:53.129Z,8.50
2023-11-08T22:05:21.423Z,6.25
2023-11-08T22:07:49.894Z,6.65
2023-11-08T22:10:19.922Z,6.40
2023-11-08T22:12:48.037Z,6.78
2023-11-08T22:15:16.268Z,6.72
2023-11-08T22:17:44.506Z,7.35
2023-11-08T22:20:13.529Z,6.25
2023-11-08T22:22:41.711Z,8.60
2023-11-08T22:25:10.527Z,9.50
2023-11-08T22:27:40.130Z,6.28
2023-11-08T22:30:10.254Z,7.18
2023-11-08T22:32:38.366Z,6.13
2023-11-08T22:35:07.191Z,6.53
2023-11-08T22:37:35.882Z,7.00
2023-11-08T22:40:04.524Z,7.35
2023-11-08T22:42:49.724Z,6.43
2023-11-08T22:45:19.427Z,6.28
2023-11-08T22:47:47.496Z,7.25
2023-11-08T22:50:15.899Z,8.60
2023-11-08T22:52:45.262Z,9.73
2023-11-08T22:55:13.594Z,7.00
2023-11-08T22:57:41.828Z,6.10
2023-11-08T23:00:11.145Z,6.47
2023-11-08T23:02:41.172Z,9.30
2023-11-08T23:05:11.017Z,6.77
2023-11-08T23:07:39.246Z,7.72
2023-11-08T23:10:09.233Z,6.35
2023-11-08T23:12:37.293Z,8.05
2023-11-08T23:15:09.976Z,6.47
2023-11-08T23:17:43.528Z,5.25
2023-11-08T23:20:16.005Z,5.63
2023-11-08T23:22:47.141Z,6.63
2023-11-08T23:25:15.345Z,6.72
2023-11-08T23:27:43.521Z,7.97
2023-11-08T23:30:13.832Z,6.87
2023-11-08T23:32:43.564Z,6.47
2023-11-08T23:35:13.922Z,7.07
2023-11-08T23:37:43.723Z,7.60
2023-11-08T23:40:12.612Z,7.03
2023-11-08T23:42:40.760Z,7.50
2023-11-08T23:45:09.329Z,6.20
2023-11-08T23:47:39.175Z,8.73
2023-11-08T23:50:09.953Z,8.67
2023-11-08T23:52:38.239Z,5.70
2023-11-08T23:55:07.426Z,6.93
2023-11-08T23:57:35.612Z,7.80
